createdAt,value
2023-01-22T00:00:01.733Z,57.00
2023-01-22T00:00:33.409Z,57.00
2023-01-22T00:01:08.910Z,57.00
2023-01-22T00:01:42.398Z,58.00
2023-01-22T00:02:14.062Z,58.00
2023-01-22T00:02:48.073Z,58.00
2023-01-22T00:03:19.775Z,58.00
2023-01-22T00:03:53.327Z,58.00
2023-01-22T00:04:25.005Z,58.00
2023-01-22T00:04:57.909Z,58.00
2023-01-22T00:05:29.592Z,58.67
2023-01-22T00:06:01.262Z,59.00
2023-01-22T00:06:32.917Z,59.33
2023-01-22T00:07:07.280Z,60.00
2023-01-22T00:07:38.940Z,60.00
2023-01-22T00:08:10.546Z,60.00
2023-01-22T00:08:43.081Z,59.33
2023-01-22T00:09:15.797Z,59.00
2023-01-22T00:09:49.816Z,58.33
2023-01-22T00:10:21.964Z,58.00
2023-01-22T00:10:55.533Z,57.00
2023-01-22T00:11:27.162Z,56.00
2023-01-22T00:11:59.099Z,55.00
2023-01-22T00:12:30.728Z,55.00
2023-01-22T00:13:02.367Z,55.00
2023-01-22T00:13:35.165Z,54.33
2023-01-22T00:14:06.899Z,54.00
2023-01-22T00:14:38.737Z,54.00
2023-01-22T00:15:10.393Z,54.00
2023-01-22T00:15:42.053Z,54.00
2023-01-22T00:16:16.351Z,54.00
2023-01-22T00:16:48.050Z,55.00
2023-01-22T00:17:21.005Z,55.00
2023-01-22T00:17:59.748Z,55.67
2023-01-22T00:18:31.501Z,56.33
2023-01-22T00:19:03.151Z,57.67
2023-01-22T00:19:34.797Z,58.67
2023-01-22T00:20:06.968Z,59.00
2023-01-22T00:20:40.828Z,59.00
2023-01-22T00:21:14.277Z,58.00
2023-01-22T00:21:45.959Z,57.33
2023-01-22T00:22:19.974Z,56.67
2023-01-22T00:22:51.622Z,55.67
2023-01-22T00:23:26.519Z,54.67
2023-01-22T00:23:58.152Z,54.00
2023-01-22T00:24:29.887Z,54.00
2023-01-22T00:25:01.632Z,54.00
2023-01-22T00:25:33.833Z,54.00
2023-01-22T00:26:18.530Z,54.00
2023-01-22T00:26:50.167Z,54.00
2023-01-22T00:27:21.793Z,54.67
2023-01-22T00:27:54.107Z,55.00
2023-01-22T00:28:25.761Z,55.00
2023-01-22T00:28:57.412Z,55.00
2023-01-22T00:29:29.058Z,55.00
2023-01-22T00:30:00.716Z,55.00
2023-01-22T00:30:33.724Z,55.00
2023-01-22T00:31:06.884Z,55.00
2023-01-22T00:31:41.425Z,55.00
2023-01-22T00:32:13.245Z,55.00
2023-01-22T00:32:54.861Z,55.00
2023-01-22T00:33:29.061Z,55.00
2023-01-22T00:34:00.690Z,55.00
2023-01-22T00:34:32.348Z,55.00
2023-01-22T00:35:04.701Z,55.00
2023-01-22T00:35:36.395Z,54.00
2023-01-22T00:36:12.940Z,54.00
2023-01-22T00:36:46.720Z,53.00
2023-01-22T00:37:18.484Z,53.00
2023-01-22T00:37:52.739Z,53.00
2023-01-22T00:38:24.358Z,53.00
2023-01-22T00:38:56.046Z,53.00
2023-01-22T00:39:27.759Z,52.67
2023-01-22T00:40:00.159Z,52.00
2023-01-22T00:40:34.023Z,52.00
2023-01-22T00:41:07.777Z,52.00
2023-01-22T00:41:40.117Z,52.00
2023-01-22T00:42:11.752Z,52.00
2023-01-22T00:42:43.415Z,52.67
2023-01-22T00:43:15.096Z,53.33
2023-01-22T00:43:47.787Z,54.00
2023-01-22T00:44:19.516Z,54.00
2023-01-22T00:44:51.286Z,54.00
2023-01-22T00:45:25.047Z,54.00
2023-01-22T00:45:56.981Z,54.00
2023-01-22T00:46:31.108Z,54.00
2023-01-22T00:47:05.341Z,54.00
2023-01-22T00:47:37.007Z,54.00
2023-01-22T00:48:08.704Z,54.00
2023-01-22T00:48:41.220Z,54.00
2023-01-22T00:49:12.887Z,54.00
2023-01-22T00:49:45.783Z,54.00
2023-01-22T00:50:17.882Z,54.00
2023-01-22T00:50:49.803Z,54.00
2023-01-22T00:51:21.539Z,54.00
2023-01-22T00:51:53.215Z,54.00
2023-01-22T00:52:25.076Z,54.00
2023-01-22T00:52:57.309Z,54.00
2023-01-22T00:53:28.984Z,54.00
2023-01-22T00:54:03.075Z,54.00
2023-01-22T00:54:36.714Z,55.00
2023-01-22T00:55:08.844Z,55.00
2023-01-22T00:55:40.726Z,55.00
2023-01-22T00:56:14.768Z,55.00
2023-01-22T00:56:50.905Z,55.00
2023-01-22T00:57:25.403Z,55.00
2023-01-22T00:57:57.041Z,55.00
2023-01-22T00:58:29.583Z,55.00
2023-01-22T00:59:01.286Z,55.00
2023-01-22T00:59:33.213Z,55.00
2023-01-22T01:00:07.978Z,55.00
2023-01-22T01:00:39.627Z,54.33
2023-01-22T01:01:15.540Z,54.00
2023-01-22T01:01:47.312Z,54.00
2023-01-22T01:02:19.309Z,53.67
2023-01-22T01:03:13.751Z,53.00
2023-01-22T01:03:47.936Z,53.00
2023-01-22T01:04:19.620Z,53.00
2023-01-22T01:04:51.258Z,52.00
2023-01-22T01:05:22.912Z,52.00
2023-01-22T01:05:58.001Z,52.00
2023-01-22T01:06:29.735Z,52.00
2023-01-22T01:07:01.391Z,52.00
2023-01-22T01:07:33.042Z,52.00
2023-01-22T01:08:05.225Z,52.00
2023-01-22T01:08:39.577Z,52.00
2023-01-22T01:09:11.556Z,52.00
2023-01-22T01:09:43.223Z,52.00
2023-01-22T01:10:14.879Z,52.00
2023-01-22T01:10:46.569Z,52.00
2023-01-22T01:11:22.059Z,52.00
2023-01-22T01:11:56.681Z,52.00
2023-01-22T01:12:28.298Z,52.00
2023-01-22T01:12:59.930Z,52.33
2023-01-22T01:13:37.479Z,53.00
2023-01-22T01:14:09.306Z,53.00
2023-01-22T01:14:40.943Z,53.00
2023-01-22T01:15:12.661Z,53.00
2023-01-22T01:15:47.045Z,53.33
2023-01-22T01:16:29.608Z,54.00
2023-01-22T01:17:01.351Z,54.00
2023-01-22T01:17:33.000Z,54.00
2023-01-22T01:18:05.220Z,53.67
2023-01-22T01:18:37.232Z,53.00
2023-01-22T01:19:10.958Z,53.00
2023-01-22T01:19:42.583Z,53.00
2023-01-22T01:20:14.509Z,53.00
2023-01-22T01:20:52.998Z,53.00
2023-01-22T01:21:24.661Z,52.00
2023-01-22T01:21:56.406Z,52.00
2023-01-22T01:22:30.624Z,52.00
2023-01-22T01:23:02.255Z,48.00
2023-01-22T01:23:34.785Z,47.00
2023-01-22T01:24:06.599Z,47.00
2023-01-22T01:24:38.219Z,47.00
2023-01-22T01:25:09.849Z,47.33
2023-01-22T01:25:42.322Z,48.00
2023-01-22T01:26:16.188Z,48.00
2023-01-22T01:26:47.864Z,48.00
2023-01-22T01:27:19.477Z,48.33
2023-01-22T01:27:51.098Z,49.00
2023-01-22T01:28:23.462Z,49.00
2023-01-22T01:28:55.125Z,49.00
2023-01-22T01:29:26.782Z,49.00
2023-01-22T01:29:59.121Z,50.00
2023-01-22T01:30:30.753Z,50.00
2023-01-22T01:31:07.572Z,50.33
2023-01-22T01:31:39.831Z,51.00
2023-01-22T01:32:11.511Z,51.00
2023-01-22T01:32:45.543Z,51.67
2023-01-22T01:33:17.317Z,52.00
2023-01-22T01:33:49.878Z,53.00
2023-01-22T01:34:21.656Z,53.00
2023-01-22T01:34:53.310Z,52.00
2023-01-22T01:35:25.051Z,52.00
2023-01-22T01:36:04.921Z,52.00
2023-01-22T01:36:48.384Z,52.00
2023-01-22T01:37:22.797Z,52.00
2023-01-22T01:37:54.461Z,52.00
2023-01-22T01:38:26.081Z,51.33
2023-01-22T01:38:57.751Z,51.00
2023-01-22T01:39:31.788Z,50.00
2023-01-22T01:40:03.730Z,50.00
2023-01-22T01:40:35.593Z,50.00
2023-01-22T01:41:09.821Z,50.00
2023-01-22T01:41:41.502Z,50.00
2023-01-22T01:42:13.307Z,49.67
2023-01-22T01:42:46.376Z,49.00
2023-01-22T01:43:18.199Z,49.00
2023-01-22T01:44:25.157Z,49.33
2023-01-22T01:45:28.432Z,49.67
2023-01-22T01:46:02.777Z,49.67
2023-01-22T01:46:38.899Z,50.00
2023-01-22T01:47:32.329Z,50.00
2023-01-22T01:48:11.945Z,50.00
2023-01-22T01:48:51.621Z,50.00
2023-01-22T01:49:27.240Z,50.00
2023-01-22T01:49:58.932Z,50.00
2023-01-22T01:50:30.830Z,50.00
2023-01-22T01:51:16.259Z,50.00
2023-01-22T01:51:50.560Z,50.00
2023-01-22T01:52:22.263Z,50.00
2023-01-22T01:52:54.579Z,50.33
2023-01-22T01:53:26.764Z,51.00
2023-01-22T01:54:00.845Z,51.00
2023-01-22T01:54:32.825Z,51.00
2023-01-22T01:55:05.091Z,51.00
2023-01-22T01:55:39.720Z,52.00
2023-01-22T01:56:18.409Z,52.00
2023-01-22T01:56:57.477Z,52.00
2023-01-22T01:57:33.567Z,52.00
2023-01-22T01:58:11.415Z,52.00
2023-01-22T01:58:46.159Z,52.00
2023-01-22T01:59:20.430Z,52.00
2023-01-22T01:59:53.055Z,52.00
2023-01-22T02:00:32.306Z,52.00
2023-01-22T02:01:11.612Z,52.00
2023-01-22T02:01:48.638Z,52.00
2023-01-22T02:02:20.983Z,52.00
2023-01-22T02:02:52.694Z,52.00
2023-01-22T02:03:25.729Z,51.00
2023-01-22T02:03:57.794Z,51.00
2023-01-22T02:04:29.756Z,51.00
2023-01-22T02:05:02.388Z,50.33
2023-01-22T02:05:46.964Z,50.00
2023-01-22T02:06:19.903Z,49.00
2023-01-22T02:06:51.704Z,48.00
2023-01-22T02:07:23.335Z,48.00
2023-01-22T02:07:55.126Z,47.00
2023-01-22T02:08:28.721Z,47.00
2023-01-22T02:09:00.572Z,46.00
2023-01-22T02:09:41.389Z,46.00
2023-01-22T02:10:15.726Z,46.00
2023-01-22T02:10:47.565Z,45.00
2023-01-22T02:11:21.908Z,44.00
2023-01-22T02:11:54.459Z,43.00
2023-01-22T02:12:28.930Z,43.00
2023-01-22T02:13:10.475Z,43.00
2023-01-22T02:13:49.652Z,43.00
2023-01-22T02:14:28.224Z,43.00
2023-01-22T02:15:03.766Z,43.00
2023-01-22T02:15:37.922Z,43.00
2023-01-22T02:16:14.453Z,43.00
2023-01-22T02:16:48.390Z,43.00
2023-01-22T02:17:22.375Z,43.67
2023-01-22T02:17:54.098Z,44.00
2023-01-22T02:18:25.743Z,44.00
2023-01-22T02:18:59.539Z,44.00
2023-01-22T02:19:31.204Z,44.00
2023-01-22T02:20:03.043Z,44.00
2023-01-22T02:20:36.755Z,44.00
2023-01-22T02:21:31.317Z,44.00
2023-01-22T02:22:05.550Z,44.00
2023-01-22T02:22:40.017Z,44.00
2023-01-22T02:23:11.650Z,44.00
2023-01-22T02:23:43.274Z,44.00
2023-01-22T02:24:17.329Z,44.67
2023-01-22T02:24:50.025Z,45.00
2023-01-22T02:25:23.219Z,45.00
2023-01-22T02:25:55.813Z,46.00
2023-01-22T02:26:27.944Z,46.67
2023-01-22T02:26:59.615Z,47.67
2023-01-22T02:27:33.296Z,48.00
2023-01-22T02:28:05.097Z,49.00
2023-01-22T02:28:36.754Z,49.00
2023-01-22T02:29:11.352Z,49.00
2023-01-22T02:29:43.012Z,49.00
2023-01-22T02:30:14.969Z,49.00
2023-01-22T02:30:46.671Z,49.00
2023-01-22T02:31:18.464Z,49.00
2023-01-22T02:31:50.168Z,49.00
2023-01-22T02:32:22.088Z,49.00
2023-01-22T02:32:53.727Z,49.00
2023-01-22T02:33:27.828Z,49.00
2023-01-22T02:34:01.921Z,49.00
2023-01-22T02:34:38.854Z,49.00
2023-01-22T02:35:10.541Z,49.00
2023-01-22T02:35:42.211Z,49.00
2023-01-22T02:36:13.973Z,48.33
2023-01-22T02:36:45.731Z,48.00
2023-01-22T02:37:19.462Z,48.00
2023-01-22T02:37:53.557Z,47.00
2023-01-22T02:38:25.207Z,47.00
2023-01-22T02:38:56.920Z,47.00
2023-01-22T02:39:31.365Z,47.00
2023-01-22T02:40:05.716Z,47.67
2023-01-22T02:40:49.129Z,48.00
2023-01-22T02:41:21.164Z,48.00
2023-01-22T02:41:53.123Z,48.00
2023-01-22T02:42:24.800Z,48.00
2023-01-22T02:42:57.612Z,48.00
2023-01-22T02:43:29.372Z,47.33
2023-01-22T02:44:03.015Z,47.00
2023-01-22T02:44:34.647Z,47.00
2023-01-22T02:45:06.770Z,47.00
2023-01-22T02:45:38.433Z,46.33
2023-01-22T02:46:10.262Z,46.33
2023-01-22T02:46:41.916Z,46.00
2023-01-22T02:47:13.548Z,46.00
2023-01-22T02:47:45.189Z,46.00
2023-01-22T02:48:16.828Z,46.00
2023-01-22T02:48:48.552Z,46.00
2023-01-22T02:49:20.199Z,46.00
2023-01-22T02:49:51.851Z,46.00
2023-01-22T02:50:23.485Z,46.00
2023-01-22T02:50:55.134Z,46.00
2023-01-22T02:51:26.839Z,46.00
2023-01-22T02:51:58.496Z,46.00
2023-01-22T02:52:30.388Z,46.00
2023-01-22T02:53:01.999Z,46.67
2023-01-22T02:53:33.701Z,47.00
2023-01-22T02:54:08.423Z,47.00
2023-01-22T02:54:49.520Z,47.00
2023-01-22T02:55:21.174Z,47.00
2023-01-22T02:55:55.264Z,47.00
2023-01-22T02:56:26.889Z,47.00
2023-01-22T02:56:58.515Z,47.00
2023-01-22T02:57:31.417Z,47.00
2023-01-22T02:58:03.065Z,47.00
2023-01-22T02:58:35.863Z,48.00
2023-01-22T02:59:09.939Z,48.00
2023-01-22T02:59:43.134Z,48.00
2023-01-22T03:00:15.415Z,48.00
2023-01-22T03:00:47.429Z,48.00
2023-01-22T03:01:22.297Z,48.33
2023-01-22T03:01:54.059Z,49.00
2023-01-22T03:02:26.429Z,49.00
2023-01-22T03:02:58.094Z,50.00
2023-01-22T03:03:29.891Z,50.00
2023-01-22T03:04:13.601Z,50.00
2023-01-22T03:04:46.724Z,50.00
2023-01-22T03:05:19.907Z,49.00
2023-01-22T03:05:55.041Z,49.00
2023-01-22T03:06:29.082Z,49.00
2023-01-22T03:07:00.742Z,49.00
2023-01-22T03:07:42.475Z,49.00
2023-01-22T03:08:14.352Z,49.00
2023-01-22T03:08:45.993Z,49.00
2023-01-22T03:09:18.088Z,49.00
2023-01-22T03:09:49.706Z,49.00
2023-01-22T03:10:21.623Z,49.00
2023-01-22T03:10:58.364Z,49.00
2023-01-22T03:11:32.915Z,49.00
2023-01-22T03:12:04.742Z,49.00
2023-01-22T03:12:56.991Z,49.33
2023-01-22T03:13:47.023Z,50.33
2023-01-22T03:14:37.455Z,52.33
2023-01-22T03:15:27.890Z,56.00
2023-01-22T03:16:18.454Z,57.67
2023-01-22T03:17:08.816Z,57.00
2023-01-22T03:17:58.855Z,57.00
2023-01-22T03:18:50.461Z,57.33
2023-01-22T03:19:42.314Z,59.00
2023-01-22T03:20:32.699Z,60.67
2023-01-22T03:21:16.658Z,61.33
2023-01-22T03:21:48.673Z,61.00
2023-01-22T03:22:20.368Z,61.00
2023-01-22T03:22:52.101Z,60.67
2023-01-22T03:23:28.816Z,59.67
2023-01-22T03:24:00.473Z,56.33
2023-01-22T03:24:32.184Z,54.33
2023-01-22T03:25:04.427Z,52.67
2023-01-22T03:25:36.429Z,52.00
2023-01-22T03:26:10.942Z,51.67
2023-01-22T03:26:42.563Z,50.33
2023-01-22T03:27:14.171Z,50.00
2023-01-22T03:28:04.057Z,49.33
2023-01-22T03:28:38.999Z,49.00
2023-01-22T03:29:12.856Z,48.00
2023-01-22T03:29:45.053Z,49.00
2023-01-22T03:30:26.044Z,49.00
2023-01-22T03:30:57.875Z,49.00
2023-01-22T03:31:29.624Z,49.00
2023-01-22T03:32:01.291Z,49.33
2023-01-22T03:32:32.988Z,50.00
2023-01-22T03:33:12.173Z,50.00
2023-01-22T03:33:46.842Z,51.33
2023-01-22T03:34:20.726Z,52.00
2023-01-22T03:34:53.744Z,52.00
2023-01-22T03:35:25.461Z,52.00
2023-01-22T03:36:15.665Z,52.00
2023-01-22T03:36:48.107Z,52.67
2023-01-22T03:37:21.031Z,53.00
2023-01-22T03:37:52.666Z,53.33
2023-01-22T03:38:24.347Z,54.00
2023-01-22T03:38:56.004Z,54.00
2023-01-22T03:39:31.013Z,54.00
2023-01-22T03:40:03.382Z,54.00
2023-01-22T03:40:35.144Z,54.00
2023-01-22T03:41:19.264Z,54.00
2023-01-22T03:41:53.321Z,54.33
2023-01-22T03:42:25.518Z,54.00
2023-01-22T03:42:59.359Z,54.00
2023-01-22T03:43:31.660Z,54.00
2023-01-22T03:44:04.258Z,54.00
2023-01-22T03:44:36.296Z,54.00
2023-01-22T03:45:12.689Z,54.00
2023-01-22T03:45:44.420Z,54.00
2023-01-22T03:46:19.009Z,55.00
2023-01-22T03:46:53.720Z,55.00
2023-01-22T03:47:25.390Z,55.00
2023-01-22T03:47:57.133Z,55.33
2023-01-22T03:48:29.488Z,56.00
2023-01-22T03:49:01.569Z,56.00
2023-01-22T03:49:33.213Z,55.33
2023-01-22T03:50:05.375Z,55.00
2023-01-22T03:50:37.294Z,55.00
2023-01-22T03:51:17.019Z,55.00
2023-01-22T03:51:48.736Z,55.00
2023-01-22T03:52:20.353Z,55.00
2023-01-22T03:52:51.982Z,55.00
2023-01-22T03:53:23.642Z,55.00
2023-01-22T03:53:55.607Z,55.00
2023-01-22T03:54:27.252Z,55.00
2023-01-22T03:54:59.125Z,55.00
2023-01-22T03:55:30.767Z,55.00
2023-01-22T03:56:05.517Z,55.00
2023-01-22T03:56:37.147Z,55.00
2023-01-22T03:57:08.798Z,55.67
2023-01-22T03:57:40.467Z,56.00
2023-01-22T03:58:12.114Z,56.67
2023-01-22T03:58:44.636Z,57.00
2023-01-22T03:59:16.351Z,57.00
2023-01-22T03:59:47.990Z,57.00
2023-01-22T04:00:20.377Z,58.00
2023-01-22T04:00:52.344Z,58.00
2023-01-22T04:01:26.755Z,59.00
2023-01-22T04:02:00.779Z,59.00
2023-01-22T04:02:34.673Z,59.00
2023-01-22T04:03:06.401Z,59.00
2023-01-22T04:03:38.621Z,59.00
2023-01-22T04:04:10.231Z,59.00
2023-01-22T04:04:44.588Z,59.00
2023-01-22T04:05:18.809Z,60.00
2023-01-22T04:05:50.485Z,59.67
2023-01-22T04:06:23.254Z,60.00
2023-01-22T04:06:54.871Z,59.67
2023-01-22T04:07:26.750Z,59.00
2023-01-22T04:07:58.396Z,59.00
2023-01-22T04:08:32.415Z,58.00
2023-01-22T04:09:05.607Z,58.00
2023-01-22T04:09:37.300Z,57.00
2023-01-22T04:10:09.584Z,56.67
2023-01-22T04:10:42.588Z,56.00
2023-01-22T04:11:14.755Z,56.00
2023-01-22T04:11:46.466Z,55.67
2023-01-22T04:12:18.656Z,55.00
2023-01-22T04:12:51.556Z,55.00
2023-01-22T04:13:24.962Z,55.00
2023-01-22T04:13:56.865Z,55.00
2023-01-22T04:14:31.029Z,55.00
2023-01-22T04:15:02.676Z,55.00
2023-01-22T04:15:34.377Z,55.00
2023-01-22T04:16:07.684Z,55.00
2023-01-22T04:16:39.377Z,55.00
2023-01-22T04:17:11.162Z,55.00
2023-01-22T04:17:42.879Z,55.00
2023-01-22T04:18:14.580Z,55.00
2023-01-22T04:18:48.233Z,55.00
2023-01-22T04:19:19.885Z,55.00
2023-01-22T04:19:51.535Z,55.00
2023-01-22T04:20:23.170Z,55.00
2023-01-22T04:20:54.863Z,55.00
2023-01-22T04:21:27.443Z,55.00
2023-01-22T04:22:01.513Z,55.00
2023-01-22T04:22:33.192Z,55.00
2023-01-22T04:23:05.501Z,55.00
2023-01-22T04:23:39.425Z,56.00
2023-01-22T04:24:13.365Z,55.67
2023-01-22T04:24:44.986Z,55.00
2023-01-22T04:25:16.745Z,55.00
2023-01-22T04:25:48.826Z,54.67
2023-01-22T04:26:20.479Z,54.00
2023-01-22T04:26:52.851Z,53.67
2023-01-22T04:27:24.546Z,53.00
2023-01-22T04:27:56.237Z,53.00
2023-01-22T04:28:27.873Z,53.00
2023-01-22T04:28:59.814Z,52.67
2023-01-22T04:29:31.458Z,52.00
2023-01-22T04:30:05.374Z,52.00
2023-01-22T04:30:38.489Z,52.00
2023-01-22T04:31:10.440Z,52.00
2023-01-22T04:31:44.374Z,51.33
2023-01-22T04:32:18.259Z,51.00
2023-01-22T04:32:49.900Z,51.00
2023-01-22T04:33:24.067Z,51.00
2023-01-22T04:33:55.706Z,51.00
2023-01-22T04:34:27.464Z,51.00
2023-01-22T04:34:59.198Z,51.00
2023-01-22T04:35:31.752Z,51.00
2023-01-22T04:36:03.447Z,51.00
2023-01-22T04:36:35.071Z,51.00
2023-01-22T04:37:06.709Z,51.00
2023-01-22T04:37:38.398Z,51.00
2023-01-22T04:38:13.231Z,51.00
2023-01-22T04:38:45.296Z,52.00
2023-01-22T04:39:16.931Z,52.00
2023-01-22T04:39:48.604Z,52.00
2023-01-22T04:40:20.697Z,52.00
2023-01-22T04:40:52.468Z,52.00
2023-01-22T04:41:24.142Z,52.00
2023-01-22T04:41:55.801Z,52.00
2023-01-22T04:42:27.525Z,52.00
2023-01-22T04:43:04.191Z,52.00
2023-01-22T04:43:37.750Z,53.00
2023-01-22T04:44:12.252Z,53.00
2023-01-22T04:44:43.911Z,53.33
2023-01-22T04:45:16.091Z,54.00
2023-01-22T04:45:53.330Z,55.33
2023-01-22T04:46:25.072Z,56.67
2023-01-22T04:46:56.785Z,58.33
2023-01-22T04:47:28.488Z,59.00
2023-01-22T04:48:00.178Z,59.00
2023-01-22T04:48:31.897Z,59.00
2023-01-22T04:49:03.548Z,59.00
2023-01-22T04:49:35.227Z,59.00
2023-01-22T04:50:07.122Z,59.00
2023-01-22T04:50:38.747Z,59.00
2023-01-22T04:51:12.703Z,59.00
2023-01-22T04:51:44.367Z,59.00
2023-01-22T04:52:16.244Z,59.00
2023-01-22T04:52:49.783Z,59.00
2023-01-22T04:53:21.504Z,59.00
2023-01-22T04:53:53.162Z,58.33
2023-01-22T04:54:27.220Z,58.00
2023-01-22T04:54:58.861Z,58.00
2023-01-22T04:55:30.962Z,57.33
2023-01-22T04:56:02.630Z,57.00
2023-01-22T04:56:36.674Z,57.00
2023-01-22T04:57:08.459Z,57.00
2023-01-22T04:57:40.100Z,57.00
2023-01-22T04:58:11.764Z,57.00
2023-01-22T04:58:43.379Z,56.67
2023-01-22T04:59:15.029Z,56.00
2023-01-22T04:59:46.653Z,56.00
2023-01-22T05:00:19.050Z,56.00
2023-01-22T05:00:50.860Z,55.00
2023-01-22T05:01:22.597Z,55.00
2023-01-22T05:01:56.764Z,54.67
2023-01-22T05:02:28.415Z,54.00
2023-01-22T05:03:03.523Z,54.00
2023-01-22T05:03:35.183Z,53.33
2023-01-22T05:04:06.834Z,52.67
2023-01-22T05:04:38.485Z,52.00
2023-01-22T05:05:12.995Z,52.00
2023-01-22T05:05:44.698Z,52.00
2023-01-22T05:06:16.400Z,51.67
2023-01-22T05:06:48.196Z,51.00
2023-01-22T05:07:19.870Z,51.33
2023-01-22T05:07:51.674Z,51.00
2023-01-22T05:08:26.039Z,51.00
2023-01-22T05:09:00.140Z,51.00
2023-01-22T05:09:31.814Z,51.00
2023-01-22T05:10:03.631Z,51.00
2023-01-22T05:10:35.289Z,51.00
2023-01-22T05:11:06.999Z,51.00
2023-01-22T05:11:41.145Z,51.00
2023-01-22T05:12:12.830Z,51.00
2023-01-22T05:12:44.441Z,51.00
2023-01-22T05:13:16.060Z,51.00
2023-01-22T05:13:47.906Z,51.00
2023-01-22T05:14:19.570Z,51.00
2023-01-22T05:14:51.386Z,51.00
2023-01-22T05:15:24.768Z,52.00
2023-01-22T05:15:57.114Z,52.00
2023-01-22T05:16:28.805Z,52.00
2023-01-22T05:17:02.400Z,52.00
2023-01-22T05:17:34.047Z,52.00
2023-01-22T05:18:07.345Z,52.00
2023-01-22T05:18:38.966Z,52.00
2023-01-22T05:19:58.935Z,52.00
2023-01-22T05:20:30.627Z,52.00
2023-01-22T05:21:04.834Z,52.00
2023-01-22T05:21:36.495Z,52.00
2023-01-22T05:22:08.244Z,52.00
2023-01-22T05:22:39.919Z,52.00
2023-01-22T05:23:14.019Z,53.00
2023-01-22T05:23:47.922Z,53.00
2023-01-22T05:24:19.636Z,53.00
2023-01-22T05:24:51.265Z,53.00
2023-01-22T05:25:22.953Z,53.00
2023-01-22T05:25:54.673Z,52.33
2023-01-22T05:26:26.350Z,52.00
2023-01-22T05:26:58.024Z,52.00
2023-01-22T05:27:29.739Z,52.00
2023-01-22T05:28:03.563Z,52.00
2023-01-22T05:28:35.399Z,52.00
2023-01-22T05:29:07.036Z,52.00
2023-01-22T05:29:39.926Z,52.00
2023-01-22T05:30:12.801Z,52.00
2023-01-22T05:30:44.691Z,52.00
2023-01-22T05:31:16.476Z,52.00
2023-01-22T05:31:48.244Z,52.00
2023-01-22T05:32:19.885Z,52.67
2023-01-22T05:32:56.830Z,53.00
2023-01-22T05:33:29.763Z,53.00
2023-01-22T05:34:01.414Z,53.00
2023-01-22T05:34:33.103Z,54.00
2023-01-22T05:35:05.844Z,54.67
2023-01-22T05:35:37.517Z,55.67
2023-01-22T05:36:12.446Z,56.33
2023-01-22T05:36:44.083Z,57.00
2023-01-22T05:37:15.734Z,57.00
2023-01-22T05:37:47.396Z,57.00
2023-01-22T05:38:19.043Z,57.00
2023-01-22T05:38:50.658Z,57.00
2023-01-22T05:39:24.065Z,57.00
2023-01-22T05:39:57.992Z,57.00
2023-01-22T05:40:29.653Z,57.00
2023-01-22T05:41:01.504Z,57.00
2023-01-22T05:41:33.204Z,57.00
2023-01-22T05:42:04.891Z,58.00
2023-01-22T05:42:36.535Z,58.00
2023-01-22T05:43:08.211Z,58.00
2023-01-22T05:43:39.885Z,58.67
2023-01-22T05:44:15.515Z,59.00
2023-01-22T05:44:47.132Z,60.00
2023-01-22T05:45:18.780Z,60.67
2023-01-22T05:45:53.039Z,61.33
2023-01-22T05:46:24.744Z,62.67
2023-01-22T05:46:56.424Z,63.00
2023-01-22T05:47:30.381Z,63.67
2023-01-22T05:48:02.029Z,64.00
2023-01-22T05:48:33.642Z,64.00
2023-01-22T05:49:05.555Z,64.00
2023-01-22T05:49:37.197Z,64.00
2023-01-22T05:50:10.064Z,64.00
2023-01-22T05:50:43.885Z,65.00
2023-01-22T05:51:15.565Z,65.00
2023-01-22T05:51:47.314Z,65.00
2023-01-22T05:52:21.755Z,66.00
2023-01-22T05:52:56.373Z,66.00
2023-01-22T05:53:28.008Z,66.00
2023-01-22T05:53:59.836Z,66.67
2023-01-22T05:54:31.475Z,67.33
2023-01-22T05:55:05.902Z,69.00
2023-01-22T05:55:37.637Z,71.00
2023-01-22T05:56:12.751Z,73.00
2023-01-22T05:56:47.144Z,74.67
2023-01-22T05:57:20.983Z,76.33
2023-01-22T05:57:52.653Z,76.67
2023-01-22T05:58:27.951Z,78.67
2023-01-22T05:58:59.761Z,80.33
2023-01-22T05:59:31.476Z,81.00
2023-01-22T06:00:04.942Z,81.00
2023-01-22T06:00:36.647Z,80.67
2023-01-22T06:01:08.351Z,80.00
2023-01-22T06:01:40.408Z,79.67
2023-01-22T06:02:12.150Z,79.00
2023-01-22T06:02:44.279Z,79.00
2023-01-22T06:03:16.054Z,78.00
2023-01-22T06:03:47.777Z,77.33
2023-01-22T06:04:19.470Z,76.00
2023-01-22T06:04:51.183Z,74.67
2023-01-22T06:05:22.871Z,73.00
2023-01-22T06:06:02.324Z,72.00
2023-01-22T06:06:36.184Z,71.00
2023-01-22T06:07:10.008Z,70.00
2023-01-22T06:07:41.801Z,70.00
2023-01-22T06:08:13.440Z,70.00
2023-01-22T06:08:47.740Z,69.00
2023-01-22T06:09:19.495Z,69.00
2023-01-22T06:09:53.676Z,69.00
2023-01-22T06:10:27.965Z,69.00
2023-01-22T06:11:12.482Z,69.00
2023-01-22T06:11:44.105Z,69.00
2023-01-22T06:12:18.304Z,69.00
2023-01-22T06:12:50.053Z,69.00
2023-01-22T06:13:21.682Z,69.00
2023-01-22T06:13:53.347Z,69.00
2023-01-22T06:14:24.994Z,69.33
2023-01-22T06:14:58.007Z,70.00
2023-01-22T06:15:29.614Z,70.67
2023-01-22T06:16:01.594Z,72.33
2023-01-22T06:16:36.043Z,73.33
2023-01-22T06:17:07.854Z,74.00
2023-01-22T06:17:39.557Z,74.33
2023-01-22T06:18:11.181Z,75.67
2023-01-22T06:18:42.942Z,76.67
2023-01-22T06:19:14.641Z,77.00
2023-01-22T06:19:46.340Z,77.00
2023-01-22T06:20:18.162Z,77.00
2023-01-22T06:20:50.044Z,77.00
2023-01-22T06:21:21.706Z,77.00
2023-01-22T06:21:53.956Z,77.00
2023-01-22T06:22:25.645Z,77.00
2023-01-22T06:22:57.269Z,77.00
2023-01-22T06:23:32.403Z,77.00
2023-01-22T06:24:04.250Z,78.00
2023-01-22T06:24:35.907Z,78.00
2023-01-22T06:25:10.927Z,78.00
2023-01-22T06:25:43.002Z,78.00
2023-01-22T06:26:14.672Z,78.00
2023-01-22T06:26:46.304Z,78.00
2023-01-22T06:27:18.407Z,78.00
2023-01-22T06:27:50.043Z,78.67
2023-01-22T06:28:25.215Z,79.00
2023-01-22T06:28:56.899Z,79.00
2023-01-22T06:29:28.543Z,79.00
2023-01-22T06:30:01.918Z,79.00
2023-01-22T06:30:33.760Z,80.33
2023-01-22T06:31:07.672Z,81.00
2023-01-22T06:31:39.548Z,80.33
2023-01-22T06:32:11.251Z,80.00
2023-01-22T06:32:42.880Z,79.00
2023-01-22T06:33:14.586Z,77.33
2023-01-22T06:33:46.214Z,76.33
2023-01-22T06:34:17.919Z,74.67
2023-01-22T06:34:49.544Z,74.00
2023-01-22T06:35:21.922Z,74.00
2023-01-22T06:35:57.239Z,74.33
2023-01-22T06:36:30.892Z,77.00
2023-01-22T06:37:02.623Z,78.33
2023-01-22T06:37:34.285Z,79.67
2023-01-22T06:38:05.920Z,81.00
2023-01-22T06:38:37.808Z,81.67
2023-01-22T06:39:09.433Z,82.67
2023-01-22T06:39:41.094Z,82.33
2023-01-22T06:40:12.935Z,82.00
2023-01-22T06:40:53.535Z,82.00
2023-01-22T06:41:25.195Z,82.00
2023-01-22T06:41:56.997Z,82.00
2023-01-22T06:42:28.659Z,82.00
2023-01-22T06:43:10.621Z,81.67
2023-01-22T06:43:42.442Z,80.67
2023-01-22T06:44:14.172Z,80.00
2023-01-22T06:44:45.777Z,80.00
2023-01-22T06:45:17.504Z,80.00
2023-01-22T06:45:49.212Z,80.00
2023-01-22T06:46:20.889Z,80.67
2023-01-22T06:46:52.535Z,81.67
2023-01-22T06:47:24.205Z,82.00
2023-01-22T06:48:02.580Z,82.00
2023-01-22T06:48:36.851Z,82.00
2023-01-22T06:49:10.586Z,82.00
2023-01-22T06:49:42.306Z,81.33
2023-01-22T06:50:14.056Z,81.00
2023-01-22T06:50:48.087Z,81.00
2023-01-22T06:51:19.837Z,80.33
2023-01-22T06:51:51.707Z,80.00
2023-01-22T06:52:23.557Z,80.00
2023-01-22T06:52:55.226Z,79.00
2023-01-22T06:53:27.367Z,79.00
2023-01-22T06:53:59.453Z,78.00
2023-01-22T06:54:31.941Z,76.00
2023-01-22T06:55:04.013Z,75.00
2023-01-22T06:55:36.282Z,74.33
2023-01-22T06:56:10.810Z,73.33
2023-01-22T06:56:42.454Z,73.00
2023-01-22T06:57:16.572Z,73.00
2023-01-22T06:57:48.236Z,73.00
2023-01-22T06:58:19.941Z,73.00
2023-01-22T06:58:51.570Z,72.67
2023-01-22T06:59:23.232Z,72.00
2023-01-22T06:59:57.423Z,72.00
2023-01-22T07:00:31.830Z,72.00
2023-01-22T07:01:05.884Z,72.00
2023-01-22T07:01:37.887Z,73.00
2023-01-22T07:02:17.342Z,73.00
2023-01-22T07:02:49.443Z,73.00
2023-01-22T07:03:21.455Z,73.33
2023-01-22T07:03:55.088Z,74.00
2023-01-22T07:04:26.841Z,74.00
2023-01-22T07:04:58.719Z,73.67
2023-01-22T07:05:30.357Z,73.00
2023-01-22T07:06:04.578Z,73.00
2023-01-22T07:06:36.249Z,73.00
2023-01-22T07:07:07.873Z,72.33
2023-01-22T07:07:42.030Z,72.00
2023-01-22T07:08:15.728Z,72.00
2023-01-22T07:08:47.556Z,72.00
2023-01-22T07:09:19.231Z,73.00
2023-01-22T07:09:50.845Z,73.00